createdAt,value
2022-12-16T00:00:09.914Z,8.34
2022-12-16T00:02:36.953Z,8.15
2022-12-16T00:05:05.069Z,8.16
2022-12-16T00:07:32.140Z,8.25
2022-12-16T00:09:59.010Z,8.26
2022-12-16T00:12:26.654Z,8.42
2022-12-16T00:14:53.661Z,8.28
2022-12-16T00:17:21.739Z,8.27
2022-12-16T00:19:48.794Z,8.35
2022-12-16T00:22:15.824Z,8.23
2022-12-16T00:24:42.709Z,8.17
2022-12-16T00:27:09.826Z,8.25
2022-12-16T00:29:36.780Z,8.42
2022-12-16T00:32:03.862Z,8.20
2022-12-16T00:34:30.740Z,8.32
2022-12-16T00:36:57.591Z,8.28
2022-12-16T00:39:24.533Z,8.37
2022-12-16T00:41:51.724Z,8.28
2022-12-16T00:44:18.989Z,8.40
2022-12-16T00:46:45.777Z,8.36
2022-12-16T00:49:12.591Z,8.54
2022-12-16T00:51:39.510Z,8.50
2022-12-16T00:54:06.499Z,8.35
2022-12-16T00:56:33.471Z,8.35
2022-12-16T00:59:00.243Z,8.50
2022-12-16T01:01:27.182Z,8.52
2022-12-16T01:03:56.984Z,8.31
2022-12-16T01:06:24.090Z,8.52
2022-12-16T01:08:52.973Z,8.53
2022-12-16T01:11:21.728Z,8.62
2022-12-16T01:13:52.039Z,8.75
2022-12-16T01:16:19.906Z,8.65
2022-12-16T01:18:46.857Z,8.81
2022-12-16T01:21:15.618Z,8.58
2022-12-16T01:23:42.948Z,8.76
2022-12-16T01:26:16.676Z,8.62
2022-12-16T01:28:43.861Z,8.61
2022-12-16T01:31:12.597Z,8.63
2022-12-16T01:33:39.815Z,8.53
2022-12-16T01:36:08.609Z,8.76
2022-12-16T01:38:36.221Z,8.65
2022-12-16T01:41:05.602Z,8.52
2022-12-16T01:43:36.261Z,8.69
2022-12-16T01:46:12.652Z,8.65
2022-12-16T01:48:43.710Z,8.58
2022-12-16T01:51:26.411Z,8.39
2022-12-16T01:53:58.565Z,8.28
2022-12-16T01:56:28.599Z,8.51
2022-12-16T01:58:56.172Z,8.55
2022-12-16T02:01:23.413Z,8.61
2022-12-16T02:03:53.173Z,8.75
2022-12-16T02:06:21.175Z,8.61
2022-12-16T02:08:54.541Z,8.32
2022-12-16T02:11:33.262Z,8.19
2022-12-16T02:14:37.396Z,8.20
2022-12-16T02:17:16.214Z,8.56
2022-12-16T02:20:07.998Z,8.70
2022-12-16T02:22:43.363Z,8.59
2022-12-16T02:25:28.832Z,8.60
2022-12-16T02:28:04.984Z,8.71
2022-12-16T02:30:50.350Z,8.33
2022-12-16T02:33:29.369Z,8.18
2022-12-16T02:36:02.574Z,8.40
2022-12-16T02:38:56.455Z,8.59
2022-12-16T02:41:29.320Z,8.86
2022-12-16T02:44:07.005Z,8.52
2022-12-16T02:46:42.291Z,8.37
2022-12-16T02:49:15.227Z,8.19
2022-12-16T02:51:42.377Z,8.59
2022-12-16T02:54:10.348Z,8.67
2022-12-16T02:56:46.178Z,8.47
2022-12-16T02:59:21.912Z,8.83
2022-12-16T03:01:58.797Z,9.13
2022-12-16T03:04:36.274Z,9.03
2022-12-16T03:07:05.967Z,8.98
2022-12-16T03:09:36.978Z,9.02
2022-12-16T03:12:09.111Z,9.01
2022-12-16T03:14:40.409Z,9.11
2022-12-16T03:17:09.178Z,9.05
2022-12-16T03:19:39.324Z,9.13
2022-12-16T03:22:17.805Z,9.16
2022-12-16T03:24:47.646Z,9.23
2022-12-16T03:27:18.897Z,9.30
2022-12-16T03:29:54.345Z,9.30
2022-12-16T03:32:36.355Z,9.19
2022-12-16T03:35:15.123Z,9.24
2022-12-16T03:37:44.494Z,9.22
2022-12-16T03:40:12.941Z,9.32
2022-12-16T03:42:41.528Z,9.25
2022-12-16T03:45:13.237Z,9.10
2022-12-16T03:47:40.320Z,8.86
2022-12-16T03:50:07.432Z,8.82
2022-12-16T03:52:34.268Z,8.85
2022-12-16T03:55:02.890Z,8.76
2022-12-16T03:57:29.788Z,8.91
2022-12-16T03:59:56.814Z,8.97
2022-12-16T04:02:23.722Z,8.92
2022-12-16T04:04:50.568Z,8.69
2022-12-16T04:07:24.868Z,8.72
2022-12-16T04:09:52.709Z,9.20
2022-12-16T04:12:39.145Z,8.93
2022-12-16T04:15:25.521Z,8.70
2022-12-16T04:18:11.232Z,8.59
2022-12-16T04:21:01.741Z,8.53
2022-12-16T04:23:49.427Z,8.54
2022-12-16T04:26:16.633Z,8.71
2022-12-16T04:28:43.432Z,9.16
2022-12-16T04:31:10.586Z,9.17
2022-12-16T04:33:56.076Z,9.66
2022-12-16T04:36:41.319Z,9.61
2022-12-16T04:39:26.649Z,9.79
2022-12-16T04:42:13.163Z,9.67
2022-12-16T04:44:58.848Z,9.61
2022-12-16T04:47:44.412Z,9.62
2022-12-16T04:50:30.037Z,9.43
2022-12-16T04:53:15.566Z,9.57
2022-12-16T04:56:04.336Z,9.50
2022-12-16T04:58:50.359Z,9.56
2022-12-16T05:01:35.793Z,9.49
2022-12-16T05:04:21.339Z,9.43
2022-12-16T05:07:06.956Z,9.57
2022-12-16T05:09:52.892Z,9.63
2022-12-16T05:12:38.158Z,9.53
2022-12-16T05:15:24.112Z,9.36
2022-12-16T05:18:09.743Z,9.30
2022-12-16T05:20:57.883Z,9.19
2022-12-16T05:23:43.310Z,9.35
2022-12-16T05:26:28.538Z,9.35
2022-12-16T05:29:13.931Z,9.24
2022-12-16T05:31:59.363Z,9.26
2022-12-16T05:34:44.837Z,9.28
2022-12-16T05:37:30.084Z,9.13
2022-12-16T05:40:15.606Z,9.51
2022-12-16T05:43:06.095Z,9.61
2022-12-16T05:45:51.232Z,9.16
2022-12-16T05:48:36.774Z,9.54
2022-12-16T05:51:22.339Z,9.78
2022-12-16T05:54:07.900Z,9.84
2022-12-16T05:56:53.208Z,9.78
2022-12-16T05:59:38.421Z,9.52
2022-12-16T06:02:24.475Z,9.61
2022-12-16T06:05:12.910Z,9.78
2022-12-16T06:07:58.320Z,9.49
2022-12-16T06:10:45.643Z,9.58
2022-12-16T06:13:31.567Z,9.45
2022-12-16T06:16:17.142Z,9.64
2022-12-16T06:19:02.804Z,9.76
2022-12-16T06:21:47.917Z,9.66
2022-12-16T06:24:33.425Z,9.90
2022-12-16T06:27:18.862Z,10.04
2022-12-16T06:30:04.319Z,9.87
2022-12-16T09:37:52.721Z,17.56
2022-12-16T09:40:44.724Z,17.28
2022-12-16T09:43:53.340Z,17.21
2022-12-16T09:47:08.770Z,17.49
2022-12-16T09:50:06.907Z,17.72
2022-12-16T09:52:59.870Z,17.20
2022-12-16T09:55:58.574Z,17.17
2022-12-16T09:58:58.793Z,17.32
2022-12-16T10:01:45.546Z,17.25
2022-12-16T10:04:30.920Z,17.20
2022-12-16T10:07:26.843Z,17.41
2022-12-16T10:10:48.727Z,17.48
2022-12-16T10:14:23.681Z,17.47
2022-12-16T10:17:27.490Z,17.89
2022-12-16T10:20:28.315Z,17.56
2022-12-16T10:23:52.133Z,17.64
2022-12-16T10:27:03.894Z,17.49
2022-12-16T10:29:51.802Z,17.44
2022-12-16T10:32:54.112Z,17.91
2022-12-16T10:35:50.250Z,17.76
2022-12-16T10:38:54.219Z,17.87
2022-12-16T10:41:44.365Z,18.16
2022-12-16T10:44:52.721Z,17.96
2022-12-16T10:47:40.851Z,18.31
2022-12-16T10:50:31.097Z,17.85
2022-12-16T10:53:23.544Z,17.82
2022-12-16T10:56:18.762Z,18.01
2022-12-16T10:59:16.600Z,18.07
2022-12-16T11:02:16.201Z,17.99
2022-12-16T11:05:02.369Z,18.04
2022-12-16T11:07:53.859Z,18.13
2022-12-16T11:10:47.151Z,17.97
2022-12-16T11:13:44.636Z,17.59
2022-12-16T11:16:43.503Z,17.73
2022-12-16T11:19:51.242Z,17.80
2022-12-16T11:22:40.328Z,17.88
2022-12-16T12:05:30.056Z,17.80
2022-12-16T12:09:00.222Z,17.47
2022-12-16T12:12:04.428Z,17.59
2022-12-16T12:15:12.144Z,17.47
2022-12-16T12:18:40.540Z,17.43
2022-12-16T12:22:15.521Z,17.16
2022-12-16T12:25:23.415Z,17.12
2022-12-16T12:29:04.261Z,17.02
2022-12-16T12:32:05.308Z,17.14
2022-12-16T12:35:22.266Z,17.08
2022-12-16T12:38:44.785Z,17.41
2022-12-16T12:42:20.927Z,17.44
2022-12-16T12:45:38.974Z,17.07
2022-12-16T16:26:37.407Z,13.83
2022-12-16T16:29:29.274Z,13.59
2022-12-16T16:32:24.772Z,13.70
2022-12-16T16:40:59.383Z,13.83
2022-12-16T16:43:46.259Z,13.94
2022-12-16T16:54:12.892Z,13.29
2022-12-16T16:56:58.384Z,13.34
2022-12-16T16:59:52.353Z,13.42
2022-12-16T17:02:55.040Z,13.52
2022-12-16T17:05:47.230Z,13.73
2022-12-16T17:08:35.803Z,13.64
2022-12-16T17:11:21.626Z,13.65
2022-12-16T17:14:06.948Z,13.53
2022-12-16T17:16:52.829Z,13.62
2022-12-16T17:19:38.545Z,13.57
2022-12-16T17:28:35.736Z,13.56
2022-12-16T17:31:21.397Z,13.65
2022-12-16T17:34:10.301Z,13.71
2022-12-16T17:59:11.298Z,13.50
2022-12-16T18:16:26.567Z,13.26
2022-12-16T18:44:09.753Z,13.28
2022-12-16T19:07:18.693Z,13.25
2022-12-16T19:10:39.174Z,13.05
2022-12-16T19:13:28.703Z,13.06
2022-12-16T19:23:28.500Z,13.09
2022-12-16T19:26:41.651Z,13.04
2022-12-16T19:30:35.956Z,12.95
2022-12-16T20:42:21.333Z,13.08
2022-12-16T21:48:08.105Z,13.00
2022-12-16T21:50:54.575Z,13.04
2022-12-16T21:53:43.644Z,13.24
2022-12-16T21:56:49.192Z,13.16
2022-12-16T21:59:47.273Z,13.02
2022-12-16T22:02:36.090Z,12.96
2022-12-16T22:05:23.023Z,13.27
2022-12-16T22:08:13.287Z,13.22
2022-12-16T22:11:48.380Z,13.11
2022-12-16T22:14:14.128Z,13.36
2022-12-16T22:17:01.301Z,13.23
2022-12-16T22:19:47.408Z,13.53
2022-12-16T22:22:34.130Z,13.69
2022-12-16T22:25:20.030Z,13.21
2022-12-16T22:28:06.590Z,13.25
2022-12-16T22:30:56.131Z,13.25
2022-12-16T22:34:33.522Z,13.04
2022-12-16T22:37:21.652Z,13.26
2022-12-16T22:40:19.886Z,13.41
2022-12-16T22:43:32.299Z,13.34
2022-12-16T22:46:47.775Z,13.15
2022-12-16T22:49:56.200Z,13.28
2022-12-16T22:52:52.974Z,13.28
2022-12-16T22:56:11.383Z,13.32
2022-12-16T23:00:16.250Z,13.35
2022-12-16T23:03:57.200Z,13.32
2022-12-16T23:17:18.231Z,13.39
2022-12-16T23:20:09.085Z,13.26
2022-12-16T23:22:57.444Z,13.39
2022-12-16T23:25:42.891Z,13.49
2022-12-16T23:28:31.027Z,13.36
2022-12-16T23:31:18.044Z,13.49
2022-12-16T23:34:04.989Z,13.42
2022-12-16T23:36:51.631Z,13.47
2022-12-16T23:39:44.531Z,13.46
2022-12-16T23:46:21.754Z,13.45
2022-12-16T23:49:34.027Z,13.56
2022-12-16T23:52:19.539Z,13.32
2022-12-16T23:56:13.955Z,13.28
2022-12-16T23:58:43.391Z,13.26
